Latest Weather Observations for Lismore Airport

IDN60801

Issued at 5:42 am EST Friday 26 April 2019 (issued every 10 minutes, with the page automatically refreshed every 10 minutes)

About weather observations | Map of weather stations | Latest weather observations for NSW | Other Formats
Station Details ID: 058214 Name: LISMORE AIRPORT AWS Lat: -28.83 Lon: 153.26 Height: 9.21 m
Data from the previous 72 hours. | See also: Recent months at Lismore Airport
Date/Time
EST
Temp
°C
App
Temp
°C
Dew
Point
°C
Rel
Hum
%
Delta-T
°C
Wind Press
QNH
hPa
Press
MSL
hPa
Rain since
9am
mm
Dir  Spd
km/h
Gust
km/h
Spd
kts
Gust
kts
26/05:30am 14.7 14.3 14.2 97 0.3 N 9 11 5 6 1017.7 1017.7 0.2
26/05:00am 15.0 14.7 14.5 97 0.3 N 9 11 5 6 1017.8 1017.8 0.2
26/04:30am 15.2 15.5 14.6 96 0.3 N 6 11 3 6 1017.8 1017.8 0.2
26/04:00am 15.5 17.1 14.9 96 0.3 CALM 0 0 0 0 1017.7 1017.7 0.2
26/03:30am 15.1 16.5 14.5 96 0.3 CALM 0 0 0 0 1017.8 1017.8 0.2
26/03:00am 15.2 16.7 14.6 96 0.3 CALM 0 0 0 0 1018.2 1018.2 0.2
26/02:30am 15.1 16.5 14.5 96 0.3 CALM 0 0 0 0 1018.2 1018.2 0.2
26/02:00am 15.6 17.2 15.0 96 0.3 CALM 0 0 0 0 1018.4 1018.4 0.2
26/01:42am 15.7 16.0 15.1 96 0.3 N 7 11 4 6 1018.6 1018.6 0.2
26/01:30am 15.9 15.9 15.3 96 0.3 N 9 13 5 7 1018.8 1018.8 0.2
26/01:29am 15.9 15.9 15.3 96 0.3 N 9 13 5 7 1018.8 1018.8 0.2
26/01:15am 15.8 16.2 15.2 96 0.3 N 7 9 4 5 1018.9 1018.9 0.2
26/01:00am 16.1 16.2 15.5 96 0.3 N 9 11 5 6 1019.1 1019.1 0.2
26/12:30am 16.1 16.2 15.5 96 0.3 N 9 11 5 6 1019.1 1019.1 0.2
26/12:00am 16.2 16.7 15.6 96 0.3 N 7 9 4 5 1019.2 1019.2 0.2
 
Date/Time
EST
Temp
°C
App
Temp
°C
Dew
Point
°C
Rel
Hum
%
Delta-T
°C
Wind Press
QNH
hPa
Press
MSL
hPa
Rain since
9am
mm
Dir  Spd
km/h
Gust
km/h
Spd
kts
Gust
kts
25/11:31pm 16.8 16.4 16.2 96 0.4 NNW 13 15 7 8 1019.2 1019.2 0.2
25/11:30pm 16.8 16.4 16.2 96 0.4 NNW 13 15 7 8 1019.3 1019.3 0.2
25/11:20pm 16.6 18.6 16.0 96 0.4 CALM 0 0 0 0 1019.4 1019.4 0.2
25/11:11pm 16.5 18.5 15.9 96 0.4 CALM 0 0 0 0 1019.4 1019.4 0.2
25/11:00pm 17.1 19.3 16.5 96 0.4 CALM 0 0 0 0 1019.5 1019.5 0.2
25/10:55pm 17.0 19.2 16.4 96 0.4 CALM 0 0 0 0 1019.6 1019.6 0.2
25/10:48pm 16.3 18.2 15.7 96 0.4 CALM 0 0 0 0 1019.6 1019.6 0.2
25/10:30pm 16.4 18.3 15.8 96 0.4 CALM 0 0 0 0 1019.5 1019.5 0.2
25/10:00pm 15.4 16.8 14.4 94 0.6 CALM 0 0 0 0 1019.6 1019.6 0.2
25/09:33pm 16.1 17.8 15.1 94 0.6 CALM 0 0 0 0 1019.9 1019.9 0.2
25/09:30pm 16.6 18.4 15.6 94 0.6 CALM 0 0 0 0 1019.9 1019.9 0.2
25/09:00pm 16.5 18.3 15.5 94 0.6 CALM 0 0 0 0 1020.2 1020.2 0.2
25/08:42pm 16.8 18.7 15.7 93 0.6 CALM 0 0 0 0 1020.0 1020.0 0.2
25/08:30pm 16.8 18.6 15.5 92 0.8 CALM 0 0 0 0 1020.0 1020.0 0.2
25/08:00pm 17.4 19.3 15.7 90 1.0 CALM 0 0 0 0 1019.6 1019.6 0.2
25/07:30pm 18.0 20.1 16.3 90 1.0 CALM 0 0 0 0 1019.5 1019.5 0.2
25/07:00pm 18.6 20.7 16.2 86 1.4 CALM 0 0 0 0 1019.3 1019.3 0.2
25/06:30pm 19.1 21.3 16.5 85 1.6 CALM 0 0 0 0 1019.1 1019.1 0.2
25/06:00pm 19.8 22.0 16.4 81 2.0 CALM 0 0 0 0 1019.0 1019.0 0.2
25/05:30pm 21.1 23.2 16.3 74 2.9 CALM 0 0 0 0 1018.6 1018.6 0.2
25/05:00pm 21.9 23.0 16.6 72 3.2 NE 6 9 3 5 1018.4 1018.4 0.2
25/04:30pm 21.7 22.1 17.3 76 2.7 ENE 11 17 6 9 1018.4 1018.4 0.2
25/04:00pm 22.3 21.9 17.2 73 3.1 NE 15 17 8 9 1018.1 1018.1 0.2
25/03:30pm 23.1 25.1 18.8 77 2.7 NNW 6 9 3 5 1018.2 1018.2 0.2
25/03:00pm 22.9 25.6 17.8 73 3.2 CALM 0 0 0 0 1018.3 1018.3 0.2
25/02:30pm 22.3 23.4 18.1 77 2.6 SE 9 11 5 6 1018.3 1018.3 0.2
25/02:00pm 22.1 22.7 17.7 76 2.7 ESE 11 17 6 9 1018.6 1018.6 0.2
25/01:30pm 25.5 27.7 16.6 58 5.5 CALM 0 0 0 0 1018.5 1018.5 0.2
25/01:00pm 24.0 26.1 16.3 62 4.7 CALM 0 0 0 0 1018.8 1018.8 0.2
25/12:30pm 23.9 24.5 16.9 65 4.3 NNW 9 11 5 6 1019.2 1019.2 0.2
25/12:00pm 23.8 26.1 16.8 65 4.3 CALM 0 2 0 1 1019.9 1019.9 0.2
25/11:30am 23.8 25.5 18.4 72 3.4 WNW 7 9 4 5 1020.5 1020.5 0.0
25/11:00am 22.1 24.9 17.9 77 2.6 CALM 0 0 0 0 1021.0 1021.0 0.0
25/10:30am 21.4 23.5 18.2 82 2.0 NW 4 11 2 6 1021.5 1021.5 0.0
25/10:19am 21.0 22.5 17.6 81 2.1 NW 6 11 3 6 1021.5 1021.5 0.0
25/10:00am 20.9 22.9 17.9 83 1.9 NNW 4 11 2 6 1021.7 1021.7 0.0
25/09:30am 20.6 22.9 17.8 84 1.7 W 2 9 1 5 1021.7 1021.7 0.0
25/09:00am 19.8 22.6 17.9 89 1.2 CALM 0 0 0 0 1021.8 1021.8 1.0
25/08:30am 18.6 21.2 17.4 93 0.7 CALM 0 0 0 0 1021.9 1021.9 1.0
25/08:00am 17.6 19.8 16.6 94 0.6 CALM 0 0 0 0 1021.8 1021.8 1.0
25/07:30am 16.7 18.7 15.9 95 0.5 CALM 0 0 0 0 1021.7 1021.7 1.0
25/07:00am 16.3 18.2 15.7 96 0.3 CALM 0 0 0 0 1021.6 1021.6 1.0
25/06:30am 16.1 16.1 15.3 95 0.5 NNE 9 11 5 6 1021.2 1021.2 1.0
25/06:08am 15.7 17.3 14.9 95 0.5 CALM 0 2 0 1 1021.0 1021.0 1.0
25/06:00am 15.7 17.3 14.9 95 0.5 CALM 0 6 0 3 1020.9 1020.9 1.0
25/05:30am 15.9 15.9 15.1 95 0.5 NW 9 13 5 7 1021.1 1021.1 1.0
25/05:00am 16.0 15.2 15.2 95 0.5 NNW 13 15 7 8 1021.0 1021.0 1.0
25/04:30am 15.9 15.1 15.1 95 0.5 NNW 13 17 7 9 1020.8 1020.8 1.0
25/04:13am 16.0 15.6 15.2 95 0.5 NNW 11 13 6 7 1020.7 1020.7 1.0
25/04:00am 16.1 17.1 15.3 95 0.5 N 4 15 2 8 1020.8 1020.8 1.0
25/03:30am 16.4 18.3 15.8 96 0.4 CALM 0 0 0 0 1020.9 1020.9 1.0
25/03:14am 16.3 18.2 15.7 96 0.4 CALM 0 0 0 0 1020.9 1020.9 1.0
25/03:00am 16.2 18.0 15.6 96 0.3 CALM 0 0 0 0 1020.9 1020.9 1.0
25/02:30am 16.0 17.0 15.4 96 0.3 N 4 9 2 5 1020.9 1020.9 1.0
25/02:00am 15.6 16.8 14.8 95 0.5 W 2 9 1 5 1021.0 1021.0 1.0
25/01:30am 15.5 16.9 14.5 94 0.6 CALM 0 0 0 0 1021.2 1021.2 1.0
25/01:00am 16.0 15.2 15.0 94 0.6 NNW 13 15 7 8 1021.2 1021.2 1.0
25/12:30am 16.4 16.2 15.6 95 0.5 NNW 11 13 6 7 1021.5 1021.5 1.0
25/12:00am 16.9 17.2 16.1 95 0.5 N 9 13 5 7 1021.7 1021.7 1.0
 
Date/Time
EST
Temp
°C
App
Temp
°C
Dew
Point
°C
Rel
Hum
%
Delta-T
°C
Wind Press
QNH
hPa
Press
MSL
hPa
Rain since
9am
mm
Dir  Spd
km/h
Gust
km/h
Spd
kts
Gust
kts
24/11:30pm 17.0 17.4 16.2 95 0.5 N 9 13 5 7 1022.0 1022.0 1.0
24/11:00pm 17.0 18.3 16.2 95 0.5 E 4 17 2 9 1022.5 1022.5 0.8
24/10:30pm 16.6 18.1 15.6 94 0.6 NNW 2 9 1 5 1022.2 1022.2 0.0
24/10:00pm 16.5 16.3 15.7 95 0.5 NNW 11 15 6 8 1022.4 1022.4 0.0
24/09:30pm 15.7 17.2 14.7 94 0.6 CALM 0 0 0 0 1022.4 1022.4 0.0
24/09:00pm 16.1 17.8 15.1 94 0.6 CALM 0 0 0 0 1022.4 1022.4 0.0
24/08:30pm 15.7 17.1 14.4 92 0.7 CALM 0 0 0 0 1022.5 1022.5 0.0
24/08:00pm 16.1 17.5 14.5 90 0.9 CALM 0 0 0 0 1022.6 1022.6 0.0
24/07:30pm 17.2 19.0 15.5 90 1.0 CALM 0 0 0 0 1022.4 1022.4 0.0
24/07:00pm 17.6 19.5 15.8 89 1.1 CALM 0 0 0 0 1022.2 1022.2 0.0
24/06:30pm 18.0 19.8 15.4 85 1.5 CALM 0 0 0 0 1021.9 1021.9 0.0
24/06:00pm 19.4 21.3 15.7 79 2.2 CALM 0 0 0 0 1021.8 1021.8 0.0
24/05:30pm 20.7 21.2 16.5 77 2.5 SE 9 11 5 6 1021.7 1021.7 0.0
24/05:00pm 21.9 22.3 16.4 71 3.3 SE 9 13 5 7 1021.5 1021.5 0.0
24/04:30pm 23.3 23.2 15.9 63 4.5 E 11 15 6 8 1021.2 1021.2 0.0
24/04:00pm 24.0 23.5 15.8 60 4.9 ESE 13 19 7 10 1021.1 1021.1 0.0
24/03:30pm 23.7 22.8 14.9 57 5.2 SE 13 17 7 9 1021.0 1021.0 0.0
24/03:00pm 24.0 24.1 15.5 59 5.1 ENE 9 17 5 9 1021.0 1021.0 0.0
24/02:41pm 23.5 23.1 15.3 60 4.9 E 11 15 6 8 1021.0 1021.0 0.0
24/02:30pm 24.0 23.4 14.7 56 5.5 ESE 11 15 6 8 1020.9 1020.9 0.0
24/02:00pm 24.9 26.3 16.3 59 5.2 E 4 9 2 5 1021.0 1021.0 0.0
24/01:30pm 23.6 22.5 15.4 60 4.9 SE 15 20 8 11 1021.0 1021.0 0.0
24/01:00pm 24.1 25.1 16.4 62 4.7 SSE 6 11 3 6 1021.5 1021.5 0.0
24/12:30pm 23.7 25.7 16.0 62 4.7 CALM 0 4 0 2 1022.1 1022.1 0.0
24/12:00pm 23.7 25.0 17.2 67 4.0 S 6 11 3 6 1022.5 1022.5 0.0
24/11:30am 22.5 23.5 17.8 75 2.9 S 9 11 5 6 1023.0 1023.0 0.0
24/11:00am 21.9 24.5 17.5 76 2.7 CALM 0 0 0 0 1023.5 1023.5 0.0
24/10:30am 21.5 22.9 17.3 77 2.6 S 6 9 3 5 1023.8 1023.8 0.0
24/10:00am 21.3 23.1 17.5 79 2.3 WSW 4 13 2 7 1024.2 1024.2 0.0
24/09:30am 20.4 23.0 17.4 83 1.8 CALM 0 0 0 0 1024.1 1024.1 0.0
24/09:06am 19.7 21.8 17.1 85 1.6 WSW 2 7 1 4 1024.2 1024.2 0.0
24/09:00am 19.5 20.6 16.7 84 1.7 WSW 6 9 3 5 1024.2 1024.2 2.4
24/08:30am 19.1 20.9 17.4 90 1.0 SW 4 15 2 8 1024.1 1024.1 2.4
24/08:00am 18.8 21.3 17.3 91 0.9 CALM 0 0 0 0 1024.1 1024.1 2.4
24/07:59am 18.8 21.4 17.5 92 0.8 CALM 0 0 0 0 1024.1 1024.1 2.4
24/07:30am 18.2 20.8 17.6 96 0.4 CALM 0 0 0 0 1023.8 1023.8 2.4
24/07:00am 17.6 20.0 17.0 96 0.4 CALM 0 0 0 0 1023.6 1023.6 2.4
24/06:39am 17.2 19.4 16.6 96 0.4 CALM 0 0 0 0 1023.3 1023.3 2.4
24/06:30am 17.2 19.4 16.6 96 0.4 CALM 0 0 0 0 1023.4 1023.4 2.4
24/06:19am 17.0 19.2 16.4 96 0.4 CALM 0 0 0 0 1023.4 1023.4 2.4
24/06:00am 16.9 19.0 16.3 96 0.4 CALM 0 0 0 0 1023.2 1023.2 2.4
24/05:30am 17.1 19.3 16.5 96 0.4 CALM 0 0 0 0 1022.7 1022.7 2.4
24/05:24am 17.0 19.2 16.4 96 0.4 CALM 0 0 0 0 1022.7 1022.7 2.2
24/05:00am 16.6 16.9 16.0 96 0.4 N 9 11 5 6 1022.6 1022.6 2.0
24/04:30am 16.4 17.6 15.8 96 0.4 N 4 9 2 5 1022.4 1022.4 2.0
24/04:00am 16.1 17.9 15.5 96 0.3 CALM 0 0 0 0 1022.1 1022.1 2.0
24/03:37am 16.4 18.3 15.8 96 0.4 CALM 0 0 0 0 1021.9 1021.9 2.0
24/03:30am 16.9 19.0 16.3 96 0.4 CALM 0 0 0 0 1021.9 1021.9 2.0
24/03:20am 17.0 19.2 16.4 96 0.4 CALM 0 0 0 0 1021.9 1021.9 2.0
24/03:00am 16.8 18.9 16.2 96 0.4 CALM 0 0 0 0 1022.3 1022.3 2.0
24/02:30am 16.9 19.0 16.3 96 0.4 CALM 0 0 0 0 1022.7 1022.7 1.8
24/02:00am 16.2 18.0 15.4 95 0.5 CALM 0 0 0 0 1022.8 1022.8 1.8
24/01:30am 16.1 17.8 15.3 95 0.5 CALM 0 0 0 0 1023.1 1023.1 1.8
24/01:04am 16.3 18.0 15.3 94 0.6 CALM 0 0 0 0 1023.3 1023.3 1.8
24/01:00am 16.2 17.9 15.1 93 0.6 CALM 0 0 0 0 1023.4 1023.4 1.8
24/12:30am 17.0 18.9 15.7 92 0.8 CALM 0 0 0 0 1023.3 1023.3 1.8
24/12:00am 17.4 19.3 15.7 90 1.0 CALM 0 0 0 0 1023.6 1023.6 1.8
 
Date/Time
EST
Temp
°C
App
Temp
°C
Dew
Point
°C
Rel
Hum
%
Delta-T
°C
Wind Press
QNH
hPa
Press
MSL
hPa
Rain since
9am
mm
Dir  Spd
km/h
Gust
km/h
Spd
kts
Gust
kts
23/11:30pm 18.8 21.1 16.8 88 1.2 CALM 0 0 0 0 1024.1 1024.1 1.8
23/11:00pm 19.3 21.7 17.1 87 1.3 CALM 0 0 0 0 1024.2 1024.2 1.8
23/10:30pm 19.8 22.2 17.0 84 1.7 CALM 0 0 0 0 1024.2 1024.2 1.8
23/10:00pm 20.2 22.2 17.0 82 1.9 ESE 2 7 1 4 1024.3 1024.3 1.8
23/09:30pm 20.1 20.3 17.7 86 1.5 SSE 13 17 7 9 1024.5 1024.5 1.8
23/09:00pm 19.7 22.6 18.2 91 0.9 CALM 0 0 0 0 1024.6 1024.6 1.8
23/08:30pm 19.6 22.5 18.1 91 0.9 CALM 0 0 0 0 1024.5 1024.5 1.8
23/08:00pm 19.8 20.7 18.3 91 0.9 SSE 11 15 6 8 1024.4 1024.4 1.8
23/07:30pm 19.6 21.1 18.1 91 0.9 SE 7 11 4 6 1024.5 1024.5 1.8
23/07:14pm 19.6 19.5 17.9 90 1.0 SSE 15 19 8 10 1024.4 1024.4 1.6
23/07:00pm 20.0 21.5 18.0 88 1.2 SSE 7 17 4 9 1024.2 1024.2 1.4
23/06:56pm 19.7 21.9 17.5 87 1.3 S 2 15 1 8 1024.1 1024.1 1.4
23/06:30pm 19.6 22.0 17.0 85 1.6 CALM 0 0 0 0 1023.7 1023.7 0.2
23/06:00pm 19.8 22.0 16.4 81 2.0 CALM 0 0 0 0 1023.4 1023.4 0.2
23/05:30pm 21.2 23.8 17.4 79 2.3 CALM 0 6 0 3 1023.2 1023.2 0.2
23/05:00pm 21.8 22.7 16.5 72 3.2 ESE 7 9 4 5 1022.7 1022.7 0.2
23/04:30pm 22.7 23.6 16.5 68 3.8 E 7 11 4 6 1022.8 1022.8 0.2
23/04:00pm 23.2 22.7 16.0 64 4.3 E 13 17 7 9 1022.5 1022.5 0.2
23/03:30pm 23.7 22.9 16.2 63 4.6 E 15 20 8 11 1022.6 1022.6 0.2
23/03:00pm 24.3 23.5 16.0 60 5.0 E 15 24 8 13 1022.4 1022.4 0.2
23/02:30pm 24.5 22.8 15.7 58 5.3 ESE 19 24 10 13 1022.4 1022.4 0.2
23/02:00pm 25.2 23.5 14.6 51 6.3 ESE 17 26 9 14 1022.5 1022.5 0.2
23/01:30pm 26.1 25.4 15.5 52 6.4 E 13 22 7 12 1022.6 1022.6 0.2
23/01:00pm 25.7 24.4 15.7 54 6.1 E 17 22 9 12 1022.8 1022.8 0.2
23/12:30pm 26.1 25.5 16.6 55 5.9 E 15 20 8 11 1023.1 1023.1 0.2
23/12:00pm 25.0 24.0 15.6 56 5.7 E 15 20 8 11 1023.5 1023.5 0.2
23/11:30am 24.5 24.2 16.5 61 4.9 ESE 13 20 7 11 1023.9 1023.9 0.2
23/11:00am 24.7 27.1 18.9 70 3.7 S 4 9 2 5 1024.3 1024.3 0.2
23/10:30am 22.9 24.3 17.4 71 3.4 SSE 6 13 3 7 1024.9 1024.9 0.2
23/10:00am 23.0 24.7 18.1 74 3.1 SSE 6 11 3 6 1025.3 1025.3 0.0
23/09:30am 21.5 24.4 18.1 81 2.1 CALM 0 0 0 0 1025.3 1025.3 0.0
23/09:00am 20.3 23.2 18.1 87 1.4 CALM 0 0 0 0 1025.4 1025.4 0.6
23/08:42am 19.1 21.5 17.1 88 1.2 CALM 0 0 0 0 1025.5 1025.5 0.6
23/08:33am 18.7 21.3 17.4 92 0.8 CALM 0 0 0 0 1025.5 1025.5 0.6
23/08:30am 18.7 21.3 17.5 93 0.7 CALM 0 0 0 0 1025.4 1025.4 0.6
23/08:00am 17.5 19.9 16.9 96 0.4 CALM 0 0 0 0 1025.2 1025.2 0.6
23/07:30am 16.9 19.1 16.4 97 0.3 CALM 0 0 0 0 1025.1 1025.1 0.6
23/07:00am 15.4 17.0 14.8 96 0.3 CALM 0 0 0 0 1024.9 1024.9 0.6
23/06:30am 14.1 15.2 13.5 96 0.3 CALM 0 0 0 0 1024.7 1024.7 0.6
23/06:00am 14.4 15.6 13.8 96 0.3 CALM 0 0 0 0 1024.2 1024.2 0.6
23/05:55am 14.3 15.5 13.7 96 0.3 CALM 0 0 0 0 1024.1 1024.1 0.6

Other formats

Comma delimited format used in spreadsheet applications
http://www.bom.gov.au/fwo/IDN60801/IDN60801.94572.axf

JavaScript Object Notation format (JSON) in row-major order
http://www.bom.gov.au/fwo/IDN60801/IDN60801.94572.json

Data quality

Most of these data are generated automatically and are frequently updated. Quality checks on data are not normally performed. It is possible for incorrect values to appear. Refer to information at About Latest Weather Observations and please check the disclaimer before using these data.